Holstebro Glider Field

DK-0008 · 中日德兰大区, 丹麦

使用的METAR站距离机场32 km。
罗盘
风向 的 风向 080° Holstebro Glider Field 2/20
风: 9 kt, 3 beaufort

5 kt

7 kt
改变
0 ft 2.000 4.000 6.000 8.000 10.000
Cloud Cloud
FEW 1.000
Cloud Cloud Cloud Cloud Cloud Cloud
BKN 10.000
METAR EKKA 032309Z AUTO 08009KT 7000 FEW010/// BKN100/// 06/05 Q1010

METAR Holstebro Glider Field - DK-0008

Holstebro Glider Field是,丹麦中的格利德菲尔德。 该机场位于纬度56,30632和经度8,58666。 该机场有一条跑道: 2/20. 这个机场没有ICAO代码,我们使用DK-0008作为参考。 机场在Kobenhavn FIR中。

该航空气象观测是针对Karup Airport在2024年3月4日 00:09, 当地时间进行的。

机场观察

风向为080°,速度为9 kt。

可见度为7 km。

有几云在1.000 ft的高度 和 碎云在10.000 ft的高度。 破损或更高的上限为10.000 ft。

温度为6 °C,阵风为1 °C。 露点为5 °C,相对湿度为93%。 海平面上的气压为1010 hPa (QNH)。

白天

今天,太阳从07:10升起,在18:04降落。 这适用于Holstebro Glider Field,世界夏令时可能有所不同。 当地时间与世界标准时间之间的时差为+1 小时。 当前,没有夏令时有效。

公司介绍

我们没有关于这个机场的公司信息。

体会

到Vliegles.nl去找飞行课程,跳伞和其他飞行体验。 浏览页面,了解Holstebro Glider Field附近所有可用的活动。 你也可以使用搜索功能来寻找你所在地附近的特定飞行课程、跳伞或其他飞行体验。

跑道

Id 标题 侧风 逆风 侧风 %
2/20 026°-206° 7 kt 5 kt 81 %

逆风成分最大的方向会被突出显示,并用于横风计算。 这并不一定意味着这个方向在使用。

乌云

1.000 ft FEW 几云
10.000 ft BKN 碎云

温度 & 天气

温度 6 °C
露点 5 °C
相对湿度 93%
风寒 1 °C
Kp-index 4 (0-9)

白天

日出
07:08 (6:46)
中午
12:35
日落
18:02

小工具

你想在你的网站上有一个关于Holstebro Glider Field的当前航空天气(METAR)的小部件吗?

显示HTML代码
?>